Martinsdale, MT

1:54 AM MDT on July 28, 2014 (GMT -0600)
Mission (KLVM) Elev 4656 ft | 45.70 °N, 110.44 °W | Change Station

Current weather conditions updated 1 hour ago

Clear
Clear
65 °F
Feels Like 65 °F
N
8
Wind Variable Wind from ESE

Today is forecast to be Cooler than yesterday.

Today
High -- | Low -- °F
--% Chance of Precip.
Yesterday
High -- | Low -- °F
Precip. -- in
5:57 AM 8:57 PM
New Moon, 2% visible
Pressure 30.15 in
Visibility 10.0 miles
Clouds Clear
Dew Point 39 °F
Humidity 39%
Rainfall 0.00 in
Snow Depth Not available.
UV 0 out of 12
Pollen 6.40 out of 12
Air Quality Not available.
Flu Activity Not available.
METAR KLVM 280653Z AUTO 11007KT 10SM CLR 18/04 A3029 RMK AO2 SLP209 T01830039 403220072

More Conditions Fewer Conditions

Pressure 30.15 in
Visibility 10.0 miles
Clouds Clear
Dew Point 39 °F
Humidity 39%
Rainfall 0.00 in
Snow Depth Not available.
UV 0 out of 12
Pollen 6.40 out of 12
Air Quality Not available.
Flu Activity Not available.
METAR KLVM 280653Z AUTO 11007KT 10SM CLR 18/04 A3029 RMK AO2 SLP209 T01830039 403220072

More Conditions Fewer Conditions

10-Day Weather Forecast

Almanac

Astronomy

Jul. 28, 2014 Rise Set
Actual Time 5:57 AM MDT 8:57 PM MDT
Civil Twilight 5:22 AM MDT 9:32 PM MDT
Nautical Twilight 4:36 AM MDT 10:17 PM MDT
Astronomical Twilight 3:41 AM MDT 11:12 PM MDT
Moon 7:51 AM MDT 9:29 PM MDT
Length of Visible Light 16h 10m
Length of Day
14h 59m
Tomorrow will be 2m 25s shorter.
New Moon, 2% of the Moon is Illuminated
Today
New Moon
Aug 3
First Quarter
Aug 10
Full
Aug 17
Last Quarter
Aug 25
New

Today's Extremes

State Highs State Lows

Community

WunderPhotos

Upload Photos

1,738,292 photos uploaded!

Nearby

Snow Depth

Station Depth Elevation
Porcupine 1 in 6500 ft
Spur Park 0 in 8100 ft
Onion Park 0 in 7410 ft
Stringer Creek 0 in 6550 ft
Crystal Lake 0 in 6050 ft

Earthquake Activity

City Distance Mag. Time & Date
No recent earthquake activity has been reported nearby.
Minimum magnitude displayed is 2.5.

Coastal Water Temperatures

Place Temperature
No Stations Reporting

Nearby Weather Stations

Station Location Temp. Dew Point Humidity Wind Precip. Elev Updated Type
HADS MUSSELSHELL RIVER AT HARLOWTON MT, Harlowton, MT 53 °F - - North  at  - 0.00 in / hr 4160 ft 1:00 AM MDT MADIS
RAWS SOUTH FORK JUDITH MT, Hobson, MT 58 °F 36 °F 43% South  at  5 mph 0.00 in / hr 6299 ft 12:53 AM MDT MADIS

Show More Stations Show Fewer Stations